Time;durP1;ratioP1;P1;durP2;ratioP2;P2;SDS_P1;SDS_P2;PMS_P1;PMS_P2;Temp;Humidity;BMP_temperature;BMP_pressure;BME280_temperature;BME280_humidity;BME280_pressure;Samples;Min_cycle;Max_cycle;Signal;HPM_P1;HPM_P2
2022/05/01 00:01:53;;;;;;;16.90;15.40;;;;;;;9.86;100.00;100857.53;5019692;28;20246;-52
2022/05/01 00:04:19;;;;;;;17.03;15.43;;;;;;;9.86;100.00;100851.50;5014041;28;20208;-52
2022/05/01 00:06:44;;;;;;;18.23;16.63;;;;;;;9.86;100.00;100860.13;5016305;28;20239;-52
2022/05/01 00:09:09;;;;;;;16.53;15.03;;;;;;;9.85;100.00;100855.78;5011640;28;20219;-52
2022/05/01 00:11:35;;;;;;;16.13;14.73;;;;;;;9.85;100.00;100853.22;5013973;28;20672;-52
2022/05/01 00:14:00;;;;;;;16.63;15.23;;;;;;;9.85;100.00;100850.63;5014589;28;20621;-52
2022/05/01 00:16:26;;;;;;;16.73;15.13;;;;;;;9.84;100.00;100854.06;5015384;28;20234;-53
2022/05/01 00:18:51;;;;;;;16.10;14.77;;;;;;;9.85;100.00;100857.53;5023125;28;20207;-52
2022/05/01 00:21:17;;;;;;;16.47;15.07;;;;;;;9.84;100.00;100848.91;5016613;28;20220;-52
2022/05/01 00:23:43;;;;;;;16.30;15.00;;;;;;;9.85;100.00;100850.63;5014873;28;20183;-52
2022/05/01 00:26:09;;;;;;;16.07;14.57;;;;;;;9.86;100.00;100854.09;5021877;28;20263;-53
2022/05/01 00:28:39;;;;;;;16.10;14.70;;;;;;;9.86;100.00;100854.09;5017426;28;20537;-53
2022/05/01 00:31:06;;;;;;;15.50;14.13;;;;;;;9.86;100.00;100852.34;5018425;28;20211;-52
2022/05/01 00:36:26;;;;;;;15.63;14.33;;;;;;;9.83;100.00;100841.16;5019588;28;20791;-52
2022/05/01 00:38:55;;;;;;;15.50;14.20;;;;;;;9.83;100.00;100839.41;5016175;28;20195;-53
2022/05/01 00:41:21;;;;;;;16.63;15.17;;;;;;;9.85;100.00;100839.44;5015109;28;20257;-53
2022/05/01 00:44:03;;;;;;;17.13;15.63;;;;;;;9.85;100.00;100837.69;5013401;28;20980;-53
2022/05/01 00:46:31;;;;;;;17.77;16.17;;;;;;;9.85;100.00;100836.84;5005596;28;20216;-53
2022/05/01 00:48:57;;;;;;;18.17;16.57;;;;;;;9.85;100.00;100837.69;5007831;28;20196;-53
2022/05/01 00:51:24;;;;;;;17.50;16.00;;;;;;;9.86;100.00;100834.25;5016927;28;20242;-53
2022/05/01 00:53:50;;;;;;;17.90;16.30;;;;;;;9.87;100.00;100838.56;5016792;28;20192;-53
2022/05/01 00:56:17;;;;;;;18.67;16.87;;;;;;;9.88;100.00;100834.28;5017381;28;20719;-53
2022/05/01 00:58:43;;;;;;;19.83;17.93;;;;;;;9.89;100.00;100833.44;5015290;28;20275;-53
2022/05/01 01:01:12;;;;;;;17.97;16.37;;;;;;;9.87;100.00;100830.81;5014886;28;20216;-53
2022/05/01 01:03:37;;;;;;;19.87;18.07;;;;;;;9.86;100.00;100829.09;5010468;28;20326;-53
2022/05/01 01:06:03;;;;;;;19.73;17.93;;;;;;;9.89;100.00;100828.25;5020239;28;20270;-54
2022/05/01 01:08:28;;;;;;;20.10;18.33;;;;;;;9.88;100.00;100829.97;5016998;28;20192;-53
2022/05/01 01:10:54;;;;;;;20.37;18.47;;;;;;;9.90;100.00;100825.66;5012426;28;20203;-54
2022/05/01 01:13:26;;;;;;;20.13;18.43;;;;;;;9.90;100.00;100832.56;5016691;28;20195;-53
2022/05/01 01:15:54;;;;;;;20.30;18.37;;;;;;;9.89;100.00;100829.09;5016638;28;20281;-53
2022/05/01 01:18:20;;;;;;;19.50;17.70;;;;;;;9.90;100.00;100825.66;5012123;28;20657;-53
2022/05/01 01:20:45;;;;;;;21.80;19.80;;;;;;;9.91;100.00;100822.22;5017210;28;20246;-53
2022/05/01 01:23:10;;;;;;;19.23;17.60;;;;;;;9.91;100.00;100817.03;5020474;28;20208;-53
2022/05/01 01:25:36;;;;;;;18.40;16.90;;;;;;;9.90;100.00;100806.72;5016042;28;20649;-53
2022/05/01 01:28:05;;;;;;;19.37;17.57;;;;;;;9.90;100.00;100814.47;5013367;28;20187;-53
2022/05/01 01:33:19;;;;;;;18.50;16.90;;;;;;;9.87;100.00;100815.31;5014487;28;20253;-53
2022/05/01 01:35:48;;;;;;;18.60;16.73;;;;;;;9.88;100.00;100811.88;5019863;28;20195;-53
2022/05/01 01:38:14;;;;;;;18.70;16.90;;;;;;;9.87;100.00;100814.47;5020027;28;20211;-53
2022/05/01 01:40:45;;;;;;;18.50;16.70;;;;;;;9.87;100.00;100814.47;5018246;28;20238;-53
2022/05/01 01:43:12;;;;;;;18.13;16.50;;;;;;;9.86;100.00;100817.91;5016952;28;20194;-52
2022/05/01 01:45:37;;;;;;;18.33;16.73;;;;;;;9.87;100.00;100815.31;5016342;28;20199;-52
2022/05/01 01:48:10;;;;;;;16.87;15.40;;;;;;;9.88;100.00;100819.63;5019214;28;20220;-52
2022/05/01 01:50:35;;;;;;;16.30;14.83;;;;;;;9.91;100.00;100811.00;5018412;28;20234;-52
2022/05/01 01:53:01;;;;;;;16.87;15.47;;;;;;;9.91;100.00;100817.03;5023159;28;20317;-52
2022/05/01 01:55:26;;;;;;;19.37;17.67;;;;;;;9.93;100.00;100819.63;5013590;28;20686;-52
2022/05/01 01:57:52;;;;;;;19.57;17.87;;;;;;;9.92;100.00;100812.72;5010910;28;20707;-52
2022/05/01 02:00:17;;;;;;;18.70;17.00;;;;;;;9.91;100.00;100818.75;5019226;28;20325;-53
2022/05/01 02:02:43;;;;;;;19.00;17.40;;;;;;;9.89;100.00;100818.75;5015540;28;20666;-53
2022/05/01 02:05:08;;;;;;;19.77;17.97;;;;;;;9.88;100.00;100816.19;5018630;28;20195;-53
2022/05/01 02:07:34;;;;;;;19.43;17.73;;;;;;;9.87;100.00;100815.31;5018862;28;20196;-52
2022/05/01 02:10:00;;;;;;;19.10;17.40;;;;;;;9.87;100.00;100812.72;5018190;28;20309;-53
2022/05/01 02:12:26;;;;;;;19.93;18.07;;;;;;;9.87;100.00;100817.88;5021121;28;20191;-53
2022/05/01 02:14:52;;;;;;;20.20;18.40;;;;;;;9.87;100.00;100810.13;5021218;28;20213;-53
2022/05/01 02:17:18;;;;;;;20.67;18.77;;;;;;;9.86;100.00;100808.41;5016724;28;20558;-52
2022/05/01 02:19:43;;;;;;;18.63;17.03;;;;;;;9.85;100.00;100803.25;5028746;28;20223;-53
2022/05/01 02:22:08;;;;;;;18.87;17.17;;;;;;;9.85;100.00;100809.25;5023740;28;20269;-53
2022/05/01 02:24:34;;;;;;;19.00;17.10;;;;;;;9.86;100.00;100813.56;5020766;28;20230;-53
2022/05/01 02:27:00;;;;;;;17.60;16.10;;;;;;;9.87;100.00;100806.69;5011515;28;20194;-53
2022/05/01 02:29:26;;;;;;;17.60;15.80;;;;;;;9.85;100.00;100793.75;5016227;28;20279;-53
2022/05/01 02:31:55;;;;;;;19.47;17.77;;;;;;;9.86;100.00;100795.47;5020614;28;20199;-53
2022/05/01 02:34:22;;;;;;;20.47;18.60;;;;;;;9.84;100.00;100791.19;5015655;28;20207;-52
2022/05/01 02:36:51;;;;;;;21.30;19.33;;;;;;;9.80;100.00;100792.03;5024853;28;20302;-53
2022/05/01 02:39:17;;;;;;;19.83;18.03;;;;;;;9.78;100.00;100797.19;5022548;28;20270;-52
2022/05/01 02:41:43;;;;;;;20.37;18.57;;;;;;;9.75;100.00;100792.91;5025271;28;20287;-52
2022/05/01 02:44:10;;;;;;;21.50;19.60;;;;;;;9.71;100.00;100793.75;5021200;28;20194;-52
2022/05/01 02:46:36;;;;;;;21.90;19.80;;;;;;;9.68;100.00;100798.88;5018257;28;20222;-52
2022/05/01 02:49:04;;;;;;;21.17;19.17;;;;;;;9.66;100.00;100797.16;5016689;28;20191;-53
2022/05/01 02:51:31;;;;;;;19.00;17.37;;;;;;;9.66;100.00;100797.16;5015594;28;20203;-52
2022/05/01 02:53:57;;;;;;;21.27;19.30;;;;;;;9.64;100.00;100794.56;5020272;28;20245;-52
2022/05/01 02:56:23;;;;;;;21.43;19.43;;;;;;;9.64;100.00;100791.97;5019199;28;20678;-52
2022/05/01 02:58:48;;;;;;;21.50;19.53;;;;;;;9.65;100.00;100788.53;5019654;28;20896;-52
2022/05/01 03:01:13;;;;;;;21.00;19.10;;;;;;;9.65;100.00;100796.28;5015925;28;21518;-52
2022/05/01 03:03:39;;;;;;;19.07;17.37;;;;;;;9.68;100.00;100791.13;5019420;28;20267;-52
2022/05/01 03:06:04;;;;;;;21.80;19.80;;;;;;;9.70;100.00;100791.13;5023844;28;20188;-53
2022/05/01 03:08:29;;;;;;;20.23;18.37;;;;;;;9.70;100.00;100781.66;5023300;28;20635;-53
2022/05/01 03:10:55;;;;;;;21.40;19.33;;;;;;;9.72;100.00;100792.88;5021300;28;20262;-53
2022/05/01 03:13:20;;;;;;;23.20;21.00;;;;;;;9.73;100.00;100781.69;5018596;28;20217;-52
2022/05/01 03:15:46;;;;;;;24.33;22.13;;;;;;;9.73;100.00;100779.09;5014212;28;20188;-52
2022/05/01 03:23:40;;;;;;;25.37;22.87;;;;;;;9.71;100.00;100773.06;5019460;28;20246;-52
2022/05/01 03:26:05;;;;;;;25.60;23.20;;;;;;;9.71;100.00;100782.53;5019744;28;20571;-56
2022/05/01 03:28:31;;;;;;;26.40;23.70;;;;;;;9.69;100.00;100771.31;5015969;28;20703;-52
2022/05/01 03:30:57;;;;;;;24.13;21.73;;;;;;;9.70;100.00;100775.63;5020197;28;20239;-52
2022/05/01 03:33:23;;;;;;;23.27;21.13;;;;;;;9.70;100.00;100770.47;5016630;28;20656;-52
2022/05/01 03:35:49;;;;;;;22.40;20.40;;;;;;;9.71;100.00;100772.19;5017775;28;20213;-52
2022/05/01 03:38:16;;;;;;;21.27;19.37;;;;;;;9.73;100.00;100775.63;5023554;28;20634;-52
2022/05/01 03:40:42;;;;;;;21.73;19.73;;;;;;;9.73;100.00;100773.06;5020380;28;20253;-53
2022/05/01 03:43:08;;;;;;;21.50;19.57;;;;;;;9.71;100.00;100770.47;5022285;28;20258;-53
2022/05/01 03:48:09;;;;;;;20.70;18.80;;;;;;;9.72;100.00;100763.56;5275232;23;20589;-53
2022/05/01 03:50:35;;;;;;;22.00;19.90;;;;;;;9.73;100.00;100762.72;5045522;28;21561;-53
2022/05/01 03:53:02;;;;;;;22.27;20.10;;;;;;;9.72;100.00;100755.81;5044298;28;20191;-53
2022/05/01 03:55:28;;;;;;;21.60;19.47;;;;;;;9.70;100.00;100755.81;5040249;28;20239;-54
2022/05/01 03:57:53;;;;;;;22.43;20.40;;;;;;;9.70;100.00;100760.13;5044046;28;20216;-53
2022/05/01 04:00:19;;;;;;;22.67;20.57;;;;;;;9.68;100.00;100756.69;5044350;28;20222;-53
2022/05/01 04:02:46;;;;;;;23.20;21.03;;;;;;;9.70;100.00;100760.13;5044541;28;20186;-53
2022/05/01 04:05:13;;;;;;;23.60;21.40;;;;;;;9.71;100.00;100754.97;5045312;28;20549;-52
2022/05/01 04:07:39;;;;;;;23.13;21.03;;;;;;;9.72;100.00;100759.28;5043233;28;20234;-52
2022/05/01 04:10:06;;;;;;;24.40;22.23;;;;;;;9.73;100.00;100758.44;5046396;28;20191;-52
2022/05/01 04:12:43;;;;;;;24.10;21.70;;;;;;;9.71;100.00;100765.31;5042123;28;20394;-52
2022/05/01 04:15:11;;;;;;;24.57;22.27;;;;;;;9.71;100.00;100762.72;5044407;28;20340;-52
2022/05/01 04:17:39;;;;;;;25.50;23.20;;;;;;;9.70;100.00;100766.16;5042277;28;20214;-55
2022/05/01 04:20:08;;;;;;;25.93;23.63;;;;;;;9.71;100.00;100767.00;5042152;28;20194;-52
2022/05/01 04:22:37;;;;;;;29.33;26.70;;;;;;;9.72;100.00;100761.88;5048839;28;20202;-51
2022/05/01 04:25:05;;;;;;;36.07;32.97;;;;;;;9.75;100.00;100771.34;5044513;28;20198;-52
2022/05/01 04:27:30;;;;;;;31.53;28.83;;;;;;;9.77;100.00;100773.06;5043443;28;20240;-51
2022/05/01 04:29:55;;;;;;;30.97;28.13;;;;;;;9.80;100.00;100773.94;5043892;28;20266;-52
2022/05/01 04:32:21;;;;;;;28.10;25.60;;;;;;;9.81;100.00;100771.38;5045104;28;20187;-54
2022/05/01 04:34:46;;;;;;;27.20;24.60;;;;;;;9.81;100.00;100781.69;5045250;28;20196;-52
2022/05/01 04:37:12;;;;;;;25.60;23.13;;;;;;;9.83;100.00;100779.09;5042734;28;20214;-54
2022/05/01 04:39:37;;;;;;;28.73;26.00;;;;;;;9.83;100.00;100781.69;5045230;28;20730;-52
2022/05/01 04:42:03;;;;;;;31.43;28.43;;;;;;;9.83;100.00;100782.53;5042285;28;20196;-54
2022/05/01 04:44:28;;;;;;;26.63;24.17;;;;;;;9.84;100.00;100783.41;5044670;28;20195;-52
2022/05/01 04:46:53;;;;;;;25.00;22.60;;;;;;;9.86;100.00;100777.38;5040563;28;20213;-52
2022/05/01 04:49:19;;;;;;;23.67;21.57;;;;;;;9.89;100.00;100777.41;5038669;28;20645;-52
2022/05/01 04:51:45;;;;;;;22.73;20.63;;;;;;;9.90;100.00;100781.72;5040410;28;22333;-52
2022/05/01 04:54:11;;;;;;;22.70;20.40;;;;;;;9.93;100.00;100782.56;5042924;28;20201;-51
2022/05/01 04:59:20;;;;;;;25.77;23.43;;;;;;;9.94;100.00;100792.06;5038955;28;20200;-51
2022/05/01 05:01:45;;;;;;;24.00;21.77;;;;;;;9.95;100.00;100797.22;5043704;28;20648;-52
2022/05/01 05:04:11;;;;;;;24.57;22.27;;;;;;;9.95;100.00;100793.78;5042358;28;20195;-52
2022/05/01 05:06:36;;;;;;;22.77;20.77;;;;;;;9.97;100.00;100795.50;5045542;28;21116;-52
2022/05/01 05:11:46;;;;;;;20.13;18.33;;;;;;;10.05;100.00;100798.97;5041584;28;20261;-52
2022/05/01 05:14:12;;;;;;;20.67;18.87;;;;;;;10.10;100.00;100801.56;5041814;28;20644;-52
2022/05/01 05:16:37;;;;;;;20.73;18.77;;;;;;;10.15;100.00;100801.56;5043694;28;21136;-52
2022/05/01 05:19:02;;;;;;;19.63;17.90;;;;;;;10.19;100.00;100800.72;5040849;28;20199;-52
2022/05/01 05:21:28;;;;;;;20.37;18.50;;;;;;;10.24;100.00;100806.75;5039771;28;20191;-52
2022/05/01 05:23:55;;;;;;;19.70;17.90;;;;;;;10.28;100.00;100799.88;5046219;28;20179;-52
2022/05/01 05:26:20;;;;;;;18.77;17.10;;;;;;;10.32;100.00;100798.97;5041858;28;20198;-52
2022/05/01 05:28:46;;;;;;;18.67;17.03;;;;;;;10.34;100.00;100811.09;5043025;28;20525;-52
2022/05/01 05:31:11;;;;;;;19.20;17.40;;;;;;;10.33;100.00;100809.34;5041121;28;20194;-52
2022/05/01 05:33:37;;;;;;;21.77;19.80;;;;;;;10.35;100.00;100806.75;5042396;28;20290;-52
2022/05/01 05:36:02;;;;;;;21.87;19.77;;;;;;;10.35;100.00;100807.63;5044403;28;20557;-52
2022/05/01 05:38:28;;;;;;;20.13;18.23;;;;;;;10.38;100.00;100809.38;5041623;28;20250;-52
2022/05/01 05:40:53;;;;;;;20.47;18.53;;;;;;;10.42;100.00;100820.59;5044093;28;20217;-52
2022/05/01 05:43:18;;;;;;;19.93;18.13;;;;;;;10.45;100.00;100821.44;5041849;28;20198;-52
2022/05/01 05:45:45;;;;;;;19.33;17.53;;;;;;;10.48;100.00;100813.69;5042881;28;20344;-52
2022/05/01 05:48:10;;;;;;;19.93;18.23;;;;;;;10.52;100.00;100820.59;5042984;28;20254;-52
2022/05/01 05:50:36;;;;;;;18.27;16.57;;;;;;;10.58;100.00;100824.91;5043093;28;20607;-51
2022/05/01 05:53:01;;;;;;;20.93;18.93;;;;;;;10.62;100.00;100821.47;5043231;28;20585;-52
2022/05/01 05:55:27;;;;;;;21.37;19.40;;;;;;;10.67;100.00;100827.47;5043259;28;20203;-52
2022/05/01 05:57:53;;;;;;;18.73;17.03;;;;;;;10.73;100.00;100823.16;5044753;28;20215;-52
2022/05/01 06:00:18;;;;;;;18.00;16.40;;;;;;;10.81;100.00;100816.28;5043189;28;20240;-52
2022/05/01 06:02:44;;;;;;;17.80;16.23;;;;;;;10.91;100.00;100819.69;5043533;28;20321;-52
2022/05/01 06:05:09;;;;;;;17.77;16.20;;;;;;;11.03;100.00;100813.63;5044799;28;20195;-52
2022/05/01 06:07:34;;;;;;;16.87;15.33;;;;;;;11.16;100.00;100815.31;5041982;28;20211;-52
2022/05/01 06:10:00;;;;;;;18.30;16.60;;;;;;;11.33;100.00;100819.56;5042378;28;20277;-52
2022/05/01 06:12:25;;;;;;;16.87;15.37;;;;;;;11.45;100.00;100822.13;5045378;28;20191;-52
2022/05/01 06:14:51;;;;;;;16.10;14.60;;;;;;;11.57;100.00;100819.47;5042487;28;20808;-52
2022/05/01 06:17:16;;;;;;;16.27;14.80;;;;;;;11.67;100.00;100817.69;5044605;28;20265;-52
2022/05/01 06:19:42;;;;;;;14.97;13.77;;;;;;;11.74;100.00;100821.13;5047324;28;20204;-52
2022/05/01 06:22:07;;;;;;;14.30;13.10;;;;;;;11.80;100.00;100822.84;5043751;28;20291;-53
2022/05/01 06:24:33;;;;;;;14.23;13.03;;;;;;;11.87;100.00;100822.78;5043694;28;20749;-53
2022/05/01 06:26:58;;;;;;;13.50;12.30;;;;;;;11.94;100.00;100822.75;5044865;28;20199;-53
2022/05/01 06:29:24;;;;;;;12.37;11.27;;;;;;;11.99;100.00;100815.84;5044126;28;20270;-53
2022/05/01 06:31:50;;;;;;;13.53;12.43;;;;;;;12.09;100.00;100811.47;5039647;28;20282;-53
2022/05/01 06:34:16;;;;;;;12.93;11.83;;;;;;;12.23;100.00;100821.72;5040079;28;20199;-52
2022/05/01 06:36:42;;;;;;;12.80;11.70;;;;;;;12.41;100.00;100819.00;5043377;28;20609;-53
2022/05/01 06:39:09;;;;;;;13.90;12.60;;;;;;;12.67;100.00;100814.47;5041734;28;20199;-52
2022/05/01 06:41:35;;;;;;;13.33;12.03;;;;;;;12.92;100.00;100820.28;5042738;28;20732;-52
2022/05/01 06:44:00;;;;;;;13.33;12.23;;;;;;;13.20;100.00;100820.81;5044882;28;20194;-53
2022/05/01 06:46:26;;;;;;;14.63;13.30;;;;;;;13.41;100.00;100814.53;5042962;28;20195;-53
2022/05/01 06:48:51;;;;;;;13.33;12.17;;;;;;;13.65;100.00;100822.06;5040576;28;20207;-53
2022/05/01 06:51:16;;;;;;;12.60;11.50;;;;;;;14.02;100.00;100821.56;5048522;28;20189;-52
2022/05/01 06:53:42;;;;;;;13.23;12.03;;;;;;;14.47;98.19;100811.31;5051435;28;20206;-53
2022/05/01 06:56:07;;;;;;;13.97;12.67;;;;;;;15.01;96.31;100806.88;5050905;28;20269;-53
2022/05/01 06:58:33;;;;;;;11.63;10.73;;;;;;;15.67;94.25;100799.47;5053538;28;20697;-52
2022/05/01 07:00:59;;;;;;;11.10;10.20;;;;;;;16.22;92.42;100798.28;5050021;28;20304;-53
2022/05/01 07:03:24;;;;;;;11.13;10.23;;;;;;;16.60;90.15;100806.88;5050153;28;20703;-52
2022/05/01 07:05:50;;;;;;;12.77;11.77;;;;;;;16.55;89.31;100804.41;5050867;28;20191;-52
2022/05/01 07:08:15;;;;;;;12.07;11.17;;;;;;;16.35;89.21;100815.34;5046707;28;20234;-52
2022/05/01 07:10:41;;;;;;;10.50;9.70;;;;;;;16.11;89.55;100808.97;5045244;28;20201;-52
2022/05/01 07:13:06;;;;;;;11.17;10.27;;;;;;;15.88;89.36;100814.72;5046457;28;20183;-52
2022/05/01 07:15:32;;;;;;;11.43;10.40;;;;;;;15.61;89.96;100815.25;5047047;28;20629;-52
2022/05/01 07:17:57;;;;;;;12.63;11.53;;;;;;;15.35;88.33;100818.44;5048473;28;20206;-53
2022/05/01 07:20:22;;;;;;;12.57;11.53;;;;;;;15.05;89.41;100824.19;5049504;28;20197;-53
2022/05/01 07:22:47;;;;;;;13.20;12.07;;;;;;;14.84;89.82;100815.03;5050335;28;20261;-53
2022/05/01 07:25:13;;;;;;;12.03;11.03;;;;;;;14.70;90.47;100817.03;5049904;28;20445;-53
2022/05/01 07:27:38;;;;;;;11.07;10.17;;;;;;;14.64;90.76;100811.00;5049921;28;20245;-53
2022/05/01 07:30:05;;;;;;;11.50;10.57;;;;;;;14.57;90.61;100817.22;5049124;28;20715;-53
2022/05/01 07:32:30;;;;;;;13.10;12.00;;;;;;;14.41;91.01;100813.16;5049055;28;20444;-53
2022/05/01 07:34:56;;;;;;;12.10;10.97;;;;;;;14.36;91.59;100814.97;5047763;28;20190;-54
2022/05/01 07:37:24;;;;;;;12.63;11.63;;;;;;;14.36;91.66;100812.34;5049479;28;20590;-53
2022/05/01 07:39:50;;;;;;;15.67;14.17;;;;;;;14.27;91.03;100811.63;5050145;28;20232;-52
2022/05/01 07:42:15;;;;;;;14.33;13.10;;;;;;;14.29;90.87;100809.84;5045581;28;20188;-53
2022/05/01 07:44:40;;;;;;;11.97;10.97;;;;;;;14.51;90.82;100809.50;5049563;28;20220;-53
2022/05/01 07:47:06;;;;;;;13.00;11.80;;;;;;;14.88;90.20;100800.19;5050815;28;20218;-52
2022/05/01 07:49:31;;;;;;;12.43;11.23;;;;;;;15.16;88.80;100791.84;5043366;28;20184;-53
2022/05/01 07:51:56;;;;;;;12.33;11.33;;;;;;;15.34;88.43;100796.69;5046253;28;20224;-53
2022/05/01 07:54:22;;;;;;;12.87;11.67;;;;;;;15.46;87.83;100794.72;5047511;28;20573;-53
2022/05/01 07:56:47;;;;;;;13.47;12.27;;;;;;;15.69;86.76;100792.47;5043889;28;20223;-53
2022/05/01 07:59:14;;;;;;;13.20;12.07;;;;;;;15.95;86.45;100798.88;5050687;28;20179;-53
2022/05/01 08:01:39;;;;;;;11.73;10.70;;;;;;;16.12;85.60;100798.47;5044794;28;20188;-53
2022/05/01 08:06:49;;;;;;;14.80;13.40;;;;;;;16.16;83.81;100796.66;5045758;28;20936;-52
2022/05/01 08:09:14;;;;;;;15.90;14.40;;;;;;;16.18;82.99;100800.09;5041163;28;20190;-52
2022/05/01 08:11:40;;;;;;;13.83;12.70;;;;;;;16.36;82.35;100795.31;5047430;28;20250;-53
2022/05/01 08:14:05;;;;;;;12.40;11.50;;;;;;;16.75;81.86;100787.34;5047161;28;20175;-53
2022/05/01 08:16:30;;;;;;;12.50;11.50;;;;;;;17.24;80.96;100781.69;5044905;28;20583;-51
2022/05/01 08:21:40;;;;;;;12.57;11.57;;;;;;;17.76;78.35;100779.28;5045571;28;20227;-53
2022/05/01 08:24:06;;;;;;;11.60;10.57;;;;;;;17.89;78.67;100782.34;5048048;28;20278;-53
2022/05/01 08:26:33;;;;;;;11.43;10.50;;;;;;;18.01;78.34;100783.75;5045075;28;20193;-51
2022/05/01 08:28:59;;;;;;;14.07;12.80;;;;;;;18.11;76.53;100779.94;5041466;28;20187;-51
2022/05/01 08:31:25;;;;;;;15.63;14.23;;;;;;;17.80;76.15;100786.09;5047054;28;20215;-51
2022/05/01 08:33:50;;;;;;;16.30;14.70;;;;;;;17.31;76.99;100775.38;5044762;28;20498;-54
2022/05/01 08:36:16;;;;;;;14.40;13.00;;;;;;;17.27;77.99;100771.13;5045260;28;20188;-52
2022/05/01 08:38:42;;;;;;;15.10;13.77;;;;;;;17.23;77.96;100779.97;5041119;28;20179;-51
2022/05/01 08:41:08;;;;;;;16.67;14.97;;;;;;;17.08;77.67;100774.28;5044853;28;20176;-53
2022/05/01 08:43:34;;;;;;;16.23;14.53;;;;;;;17.10;77.29;100782.06;5041319;28;20195;-53
2022/05/01 08:46:34;;;;;;;15.50;14.10;;;;;;;16.87;77.03;100773.94;5057290;28;20183;-53
2022/05/01 08:49:10;;;;;;;13.07;12.00;;;;;;;17.21;77.76;100773.03;5042600;28;20703;-51
2022/05/01 08:51:35;;;;;;;13.87;12.70;;;;;;;17.62;76.93;100779.69;5041817;28;20189;-51
2022/05/01 08:54:06;;;;;;;16.83;15.33;;;;;;;17.96;75.52;100779.47;5045349;28;20183;-51
2022/05/01 08:56:33;;;;;;;15.53;14.07;;;;;;;17.95;76.12;100775.16;5041864;28;20226;-51
2022/05/01 08:59:04;;;;;;;14.60;13.40;;;;;;;17.93;76.24;100779.56;5043929;28;20182;-51
2022/05/01 09:01:31;;;;;;;16.80;15.20;;;;;;;18.01;75.79;100779.34;5034806;28;20580;-51
2022/05/01 09:03:57;;;;;;;18.67;16.93;;;;;;;17.99;75.49;100778.59;5041162;28;20647;-51
2022/05/01 09:06:22;;;;;;;14.53;13.30;;;;;;;17.92;75.84;100780.47;5042309;28;20186;-53
2022/05/01 09:08:51;;;;;;;14.30;13.20;;;;;;;18.19;76.22;100770.06;5041277;28;20245;-53
2022/05/01 09:14:02;;;;;;;15.37;14.17;;;;;;;18.63;74.75;100771.22;5038017;28;20944;-52
2022/05/01 09:16:27;;;;;;;15.20;13.77;;;;;;;18.74;74.45;100771.69;5041489;28;20207;-53
2022/05/01 09:18:52;;;;;;;14.67;13.33;;;;;;;18.73;73.95;100767.38;5045652;28;20194;-53
2022/05/01 09:21:18;;;;;;;14.37;13.07;;;;;;;18.57;73.56;100773.13;5041459;28;20187;-53
2022/05/01 09:23:46;;;;;;;11.20;10.30;;;;;;;18.40;75.24;100763.25;5038948;28;20201;-52
2022/05/01 09:26:13;;;;;;;12.27;11.27;;;;;;;18.27;75.55;100762.78;5039289;28;20198;-51
2022/05/01 09:28:51;;;;;;;12.93;11.83;;;;;;;18.12;75.64;100773.78;5041001;28;21905;-53
2022/05/01 09:31:42;;;;;;;13.63;12.37;;;;;;;17.83;77.18;100770.31;5044109;28;20999;-52
2022/05/01 09:34:25;;;;;;;14.57;13.17;;;;;;;17.69;77.36;100762.91;5041226;28;20829;-51
2022/05/01 09:36:51;;;;;;;12.33;11.30;;;;;;;17.43;77.55;100761.91;5038901;28;20718;-51
2022/05/01 09:39:18;;;;;;;12.20;11.13;;;;;;;17.45;78.35;100769.75;5041576;28;20182;-51
2022/05/01 09:41:43;;;;;;;14.20;13.00;;;;;;;17.31;78.70;100771.00;5041225;28;20195;-51
2022/05/01 09:44:13;;;;;;;16.03;14.43;;;;;;;17.08;78.36;100766.44;5043556;28;20180;-52
2022/05/01 09:46:39;;;;;;;12.47;11.47;;;;;;;17.01;78.75;100775.34;5041069;28;20207;-51
2022/05/01 09:49:10;;;;;;;13.40;12.07;;;;;;;17.03;79.51;100781.41;5039972;28;20186;-51
2022/05/01 09:51:46;;;;;;;12.27;11.13;;;;;;;17.19;79.08;100777.44;5040741;28;20189;-52
2022/05/01 09:54:25;;;;;;;13.33;12.23;;;;;;;17.34;78.79;100775.28;5039321;28;20183;-52
2022/05/01 09:56:51;;;;;;;13.87;12.67;;;;;;;17.26;78.84;100778.13;5038031;28;20207;-51
2022/05/01 09:59:18;;;;;;;14.63;13.33;;;;;;;17.33;78.45;100777.03;5039465;28;20187;-52
2022/05/01 10:02:01;;;;;;;15.30;13.97;;;;;;;17.36;78.27;100782.19;5037968;28;20270;-52
2022/05/01 10:04:27;;;;;;;13.27;12.20;;;;;;;17.29;78.95;100778.03;5040258;28;20263;-51
2022/05/01 10:06:54;;;;;;;15.93;14.50;;;;;;;17.44;78.58;100784.56;5038460;28;20211;-51
2022/05/01 10:09:27;;;;;;;17.03;15.53;;;;;;;17.66;78.48;100773.47;5040954;28;20187;-50
2022/05/01 10:11:55;;;;;;;13.57;12.40;;;;;;;17.83;78.14;100775.53;5043244;28;20184;-52
2022/05/01 10:14:21;;;;;;;12.07;11.07;;;;;;;18.09;78.05;100781.72;5038536;28;20193;-52
2022/05/01 10:16:47;;;;;;;10.63;9.73;;;;;;;18.35;77.89;100767.78;5039098;28;20259;-51
2022/05/01 10:19:17;;;;;;;9.93;9.13;;;;;;;18.67;77.53;100765.81;5043519;28;20167;-51
2022/05/01 10:21:49;;;;;;;14.40;13.20;;;;;;;18.91;74.65;100757.13;5046196;28;20895;-52
2022/05/01 10:24:16;;;;;;;14.37;13.17;;;;;;;18.70;74.44;100757.84;5044238;28;20221;-51
2022/05/01 10:27:01;;;;;;;11.80;10.80;;;;;;;18.67;74.79;100762.34;5045913;28;20201;-52
2022/05/01 10:29:38;;;;;;;11.03;9.97;;;;;;;19.09;74.55;100745.13;5043340;28;20182;-52
2022/05/01 10:32:24;;;;;;;13.17;11.97;;;;;;;19.53;72.43;100754.84;5047299;28;20190;-52
2022/05/01 10:35:38;;;;;;;11.07;10.07;;;;;;;19.52;72.97;100759.22;5051489;28;20211;-51
2022/05/01 10:38:21;;;;;;;8.87;8.13;;;;;;;19.62;73.73;100751.84;4990216;28;20760;-52
2022/05/01 10:40:51;;;;;;;9.93;9.13;;;;;;;19.75;74.13;100749.63;5042551;28;20187;-52
2022/05/01 10:43:33;;;;;;;10.00;9.20;;;;;;;19.65;73.87;100752.63;5047433;28;20185;-52
2022/05/01 10:46:17;;;;;;;8.97;8.27;;;;;;;19.61;74.84;100745.75;5043516;28;20180;-51
2022/05/01 10:48:43;;;;;;;10.00;9.10;;;;;;;19.57;74.53;100744.16;5042599;28;20186;-53
2022/05/01 10:51:30;;;;;;;11.07;10.23;;;;;;;19.29;72.75;100742.63;5046293;28;20193;-51
2022/05/01 10:54:17;;;;;;;12.70;11.60;;;;;;;18.76;74.08;100741.03;5044384;28;20185;-52
2022/05/01 10:56:43;;;;;;;11.63;10.63;;;;;;;18.40;74.70;100734.44;5040508;28;20382;-53
2022/05/01 10:59:42;;;;;;;13.30;12.10;;;;;;;18.15;75.07;100728.31;5041646;28;20693;-53
2022/05/01 11:02:19;;;;;;;12.93;11.83;;;;;;;18.15;74.95;100723.91;5041940;28;20174;-52
2022/05/01 11:04:45;;;;;;;12.93;11.83;;;;;;;18.05;75.39;100725.16;5043176;28;20647;-53
2022/05/01 11:07:13;;;;;;;10.73;9.83;;;;;;;18.02;75.80;100727.84;5039744;28;20212;-53
2022/05/01 11:09:41;;;;;;;12.33;11.23;;;;;;;18.17;75.18;100721.25;5043401;28;20272;-52
2022/05/01 11:12:08;;;;;;;10.30;9.40;;;;;;;18.38;75.26;100723.13;5042104;28;20606;-52
2022/05/01 11:14:39;;;;;;;12.77;11.47;;;;;;;18.36;73.96;100727.56;5043915;28;20238;-52
2022/05/01 11:17:05;;;;;;;11.73;10.63;;;;;;;18.31;73.78;100723.41;5041478;28;20209;-52
2022/05/01 11:19:46;;;;;;;12.00;11.00;;;;;;;18.48;73.78;100720.19;5043639;28;20188;-51
2022/05/01 11:22:14;;;;;;;9.47;8.67;;;;;;;18.61;73.70;100715.38;5043621;28;20196;-52
2022/05/01 11:24:44;;;;;;;11.90;10.97;;;;;;;18.74;73.70;100711.41;5038541;28;20567;-52
2022/05/01 11:27:17;;;;;;;12.43;11.13;;;;;;;18.78;73.26;100712.13;5041754;28;20239;-52
2022/05/01 11:30:07;;;;;;;9.13;8.43;;;;;;;18.78;72.89;100710.38;5038614;28;20245;-51
2022/05/01 11:32:58;;;;;;;10.40;9.50;;;;;;;18.76;72.92;100708.69;5036836;28;20274;-52
2022/05/01 11:35:55;;;;;;;9.60;8.80;;;;;;;18.64;73.19;100717.88;5037240;28;20198;-52
2022/05/01 11:38:22;;;;;;;9.47;8.67;;;;;;;18.62;73.74;100709.22;5038230;28;20217;-51
2022/05/01 11:41:00;;;;;;;9.73;8.93;;;;;;;18.63;73.79;100708.31;5045005;28;20193;-51